Time;durP1;ratioP1;P1;durP2;ratioP2;P2;SDS_P1;SDS_P2;PMS_P1;PMS_P2;Temp;Humidity;BMP_temperature;BMP_pressure;BME280_temperature;BME280_humidity;BME280_pressure;Samples;Min_cycle;Max_cycle;Signal;HPM_P1;HPM_P2
2021/05/13 00:01:12;;;;;;;17.20;6.97;;;;;;;12.47;85.55;100709.02;1697176;83;21197;-61
2021/05/13 00:03:46;;;;;;;46.07;15.43;;;;;;;12.49;85.71;100708.43;1696864;83;21345;-61
2021/05/13 00:06:19;;;;;;;13.55;5.00;;;;;;;12.50;85.96;100693.84;1692827;83;21197;-61
2021/05/13 00:08:55;;;;;;;12.78;5.87;;;;;;;12.54;86.00;100683.88;1696617;83;21308;-61
2021/05/13 00:11:31;;;;;;;13.58;5.80;;;;;;;12.54;85.95;100678.14;1696633;83;21296;-61
2021/05/13 00:14:06;;;;;;;12.10;5.60;;;;;;;12.55;86.04;100673.25;1692370;84;21383;-61
2021/05/13 00:16:39;;;;;;;17.90;6.92;;;;;;;12.59;86.01;100679.03;1696482;83;21333;-61
2021/05/13 00:19:14;;;;;;;10.00;4.65;;;;;;;12.57;85.77;100688.37;1696767;83;21201;-61
2021/05/13 00:21:47;;;;;;;10.23;4.72;;;;;;;12.57;85.78;100692.80;1696882;83;21336;-61
2021/05/13 00:24:20;;;;;;;12.23;5.75;;;;;;;12.55;85.75;100706.08;1697504;83;21345;-61
2021/05/13 00:26:58;;;;;;;32.30;13.27;;;;;;;12.54;85.77;100715.39;1696898;83;21309;-61
2021/05/13 00:29:29;;;;;;;36.60;12.78;;;;;;;12.52;85.91;100710.28;1697394;83;21352;-60
2021/05/13 00:32:02;;;;;;;24.77;9.35;;;;;;;12.52;86.02;100709.45;1697749;83;21795;-60
2021/05/13 00:34:35;;;;;;;20.15;9.03;;;;;;;12.52;86.07;100706.82;1697039;83;21193;-59
2021/05/13 00:37:08;;;;;;;15.98;7.97;;;;;;;12.50;86.11;100714.84;1697735;83;21222;-60
2021/05/13 00:39:41;;;;;;;26.15;9.90;;;;;;;12.50;86.21;100713.53;1696476;83;21229;-59
2021/05/13 00:42:14;;;;;;;63.33;24.20;;;;;;;12.51;86.34;100714.38;1696847;83;21233;-61
2021/05/13 00:44:47;;;;;;;53.83;22.33;;;;;;;12.53;86.45;100717.20;1696834;83;21185;-61
2021/05/13 00:47:21;;;;;;;47.75;19.48;;;;;;;12.52;86.47;100727.83;1697243;83;21273;-61
2021/05/13 00:49:54;;;;;;;47.35;19.42;;;;;;;12.52;86.50;100735.23;1677351;84;21241;-61
2021/05/13 00:52:27;;;;;;;52.17;17.37;;;;;;;12.52;86.54;100726.04;1696590;84;21340;-61
2021/05/13 00:55:00;;;;;;;37.17;13.75;;;;;;;12.53;86.59;100719.84;1696843;83;21364;-59
2021/05/13 00:57:33;;;;;;;19.87;8.47;;;;;;;12.53;86.65;100729.03;1696654;83;21297;-59
2021/05/13 01:00:29;;;;;;;21.07;8.50;;;;;;;12.54;86.65;100743.80;1697255;83;21303;-59
2021/05/13 01:02:42;;;;;;;16.30;6.97;;;;;;;12.53;86.58;100742.16;1690100;84;21557;-60
2021/05/13 01:05:15;;;;;;;11.38;5.15;;;;;;;12.52;86.61;100736.55;1696752;83;21296;-60
2021/05/13 01:07:48;;;;;;;;;;;;;;;12.52;86.72;100737.86;1698703;83;21159;-60
2021/05/13 01:10:22;;;;;;;11.05;5.00;;;;;;;12.51;86.79;100737.53;1697489;83;20204;-60
2021/05/13 01:13:16;;;;;;;8.68;4.65;;;;;;;12.50;86.87;100737.64;1692593;84;21189;-60
2021/05/13 01:15:50;;;;;;;9.43;4.12;;;;;;;12.50;86.91;100736.33;1695813;84;21222;-59
2021/05/13 01:18:25;;;;;;;8.90;4.75;;;;;;;12.50;87.00;100733.70;1696296;83;21166;-60
2021/05/13 01:20:54;;;;;;;11.78;5.42;;;;;;;12.50;87.12;100734.55;1696618;83;21854;-60
2021/05/13 01:23:27;;;;;;;10.10;5.10;;;;;;;12.52;87.18;100739.17;1681508;84;21396;-60
2021/05/13 01:26:00;;;;;;;10.90;5.17;;;;;;;12.53;87.05;100740.84;1692303;83;21178;-60
2021/05/13 01:28:33;;;;;;;11.03;5.00;;;;;;;12.53;86.96;100743.95;1673515;84;21324;-60
2021/05/13 01:31:07;;;;;;;7.12;4.12;;;;;;;12.52;86.88;100756.72;1696494;83;21185;-60
2021/05/13 01:33:42;;;;;;;8.05;3.83;;;;;;;12.50;86.80;100762.12;1697659;83;21887;-60
2021/05/13 01:36:15;;;;;;;8.45;3.98;;;;;;;12.50;86.86;100761.28;1696641;83;21198;-60
2021/05/13 01:38:48;;;;;;;7.30;3.47;;;;;;;12.50;86.90;100757.34;1696961;83;21189;-60
2021/05/13 01:41:21;;;;;;;7.25;3.40;;;;;;;12.50;86.92;100760.80;1696691;83;21288;-60
2021/05/13 01:43:54;;;;;;;10.00;3.70;;;;;;;12.49;86.88;100760.95;1697350;83;21340;-60
2021/05/13 01:46:27;;;;;;;7.00;3.60;;;;;;;12.47;86.78;100765.48;1696883;83;21202;-60
2021/05/13 01:49:01;;;;;;;6.70;3.83;;;;;;;12.43;86.95;100764.94;1697287;83;21303;-60
2021/05/13 01:51:34;;;;;;;7.87;3.40;;;;;;;12.47;86.96;100766.32;1696737;83;21348;-60
2021/05/13 01:54:07;;;;;;;6.47;3.37;;;;;;;12.48;86.89;100766.68;1696753;83;21886;-60
2021/05/13 01:56:40;;;;;;;4.78;3.50;;;;;;;12.46;86.88;100752.86;1691654;83;22043;-60
2021/05/13 01:59:13;;;;;;;5.17;3.55;;;;;;;12.46;86.84;100762.53;1696907;83;21324;-60
2021/05/13 02:01:46;;;;;;;;;;;;;;;12.44;86.80;100769.21;1699134;83;21201;-60
2021/05/13 02:04:19;;;;;;;4.78;3.25;;;;;;;12.41;86.67;100775.23;1678602;84;20327;-60
2021/05/13 02:06:52;;;;;;;5.87;3.52;;;;;;;12.36;86.83;100771.70;1691430;84;21934;-60
2021/05/13 02:09:27;;;;;;;5.42;3.05;;;;;;;12.37;86.98;100761.52;1694932;84;21721;-60
2021/05/13 02:12:00;;;;;;;4.73;2.60;;;;;;;12.39;86.98;100765.35;1695465;84;21352;-60
2021/05/13 02:14:33;;;;;;;;;;;;;;;12.38;86.98;100771.55;1697351;84;21859;-60
2021/05/13 02:17:06;;;;;;;8.18;3.70;;;;;;;12.39;87.08;100779.80;1695070;84;20747;-61
2021/05/13 02:19:39;;;;;;;7.28;2.98;;;;;;;12.36;87.21;100771.70;1694363;84;21738;-61
2021/05/13 02:22:12;;;;;;;6.10;3.03;;;;;;;12.39;87.25;100777.17;1695437;84;21318;-60
2021/05/13 02:24:45;;;;;;;6.60;3.10;;;;;;;12.41;87.24;100782.63;1694821;84;21293;-60
2021/05/13 02:27:18;;;;;;;6.58;3.37;;;;;;;12.43;87.28;100774.61;1694233;84;21816;-60
2021/05/13 02:29:52;;;;;;;7.40;3.27;;;;;;;12.46;87.32;100767.30;1694793;84;21248;-60
2021/05/13 02:32:24;;;;;;;8.40;3.77;;;;;;;12.49;87.26;100767.01;1694685;84;21970;-60
2021/05/13 02:34:57;;;;;;;6.73;3.47;;;;;;;12.52;87.25;100764.59;1747604;81;21180;-60
2021/05/13 02:37:30;;;;;;;5.07;2.53;;;;;;;12.56;87.29;100766.81;1740608;81;21448;-60
2021/05/13 02:40:05;;;;;;;6.70;2.43;;;;;;;12.60;87.28;100767.38;1745288;82;21280;-62
2021/05/13 02:42:38;;;;;;;5.42;2.80;;;;;;;12.63;87.30;100767.92;1740896;82;21282;-60
2021/05/13 02:45:12;;;;;;;6.55;2.75;;;;;;;12.69;87.41;100773.96;1738384;82;21698;-60
2021/05/13 02:47:47;;;;;;;6.08;3.00;;;;;;;12.72;87.30;100765.81;1736324;82;21342;-61
2021/05/13 02:50:19;;;;;;;7.60;2.95;;;;;;;12.76;87.19;100768.98;1732605;82;21334;-61
2021/05/13 02:52:52;;;;;;;5.28;2.60;;;;;;;12.80;87.03;100780.39;1731976;81;21341;-61
2021/05/13 02:55:25;;;;;;;5.83;3.07;;;;;;;12.83;86.93;100781.91;1729244;82;21224;-61
2021/05/13 02:58:00;;;;;;;7.03;2.37;;;;;;;12.84;86.91;100771.28;1727173;81;21307;-61
2021/05/13 03:00:48;;;;;;;5.37;2.50;;;;;;;12.89;87.00;100769.55;1741668;82;21318;-61
2021/05/13 03:03:11;;;;;;;6.10;3.00;;;;;;;12.95;87.00;100778.19;1723885;81;21216;-61
2021/05/13 03:05:44;;;;;;;7.10;2.60;;;;;;;13.00;86.77;100773.82;1724469;82;21175;-61
2021/05/13 03:08:17;;;;;;;12.67;2.93;;;;;;;13.02;86.60;100775.34;1731432;82;21144;-61
2021/05/13 03:10:50;;;;;;;7.45;3.08;;;;;;;13.07;86.47;100784.16;1740628;81;21925;-61
2021/05/13 03:13:25;;;;;;;7.10;2.80;;;;;;;13.08;86.26;100783.20;1740440;82;21287;-61
2021/05/13 03:15:59;;;;;;;5.78;2.65;;;;;;;13.08;86.09;100776.16;1735536;81;21778;-61
2021/05/13 03:18:33;;;;;;;10.05;3.30;;;;;;;13.11;86.09;100775.05;1724824;81;21762;-62
2021/05/13 03:21:20;;;;;;;6.25;3.05;;;;;;;13.16;86.13;100778.89;1734128;82;21408;-61
2021/05/13 03:23:55;;;;;;;4.97;2.95;;;;;;;13.20;85.94;100785.55;1746604;82;21267;-61
2021/05/13 03:26:29;;;;;;;4.60;2.70;;;;;;;13.19;85.68;100780.41;1733425;82;21868;-62
2021/05/13 03:28:55;;;;;;;6.10;3.45;;;;;;;13.20;85.71;100777.67;1725764;82;21824;-62
2021/05/13 03:31:28;;;;;;;9.68;3.65;;;;;;;13.23;85.71;100777.36;1744463;82;21180;-62
2021/05/13 03:34:02;;;;;;;6.92;3.75;;;;;;;13.31;85.70;100774.03;1738015;81;21825;-62
2021/05/13 03:36:35;;;;;;;5.97;3.05;;;;;;;13.36;85.66;100773.97;1696820;83;21740;-64
2021/05/13 03:39:09;;;;;;;7.87;3.58;;;;;;;13.44;85.57;100776.73;1745772;81;21178;-62
2021/05/13 03:41:43;;;;;;;5.70;3.42;;;;;;;13.50;85.45;100764.31;1733018;81;21285;-62
2021/05/13 03:44:16;;;;;;;4.42;2.27;;;;;;;13.57;85.38;100763.73;1742354;81;21319;-62
2021/05/13 03:46:49;;;;;;;8.58;3.17;;;;;;;13.62;85.27;100766.77;1744286;82;21192;-62
2021/05/13 03:49:22;;;;;;;4.60;3.05;;;;;;;13.66;85.22;100766.33;1734610;81;21285;-62
2021/05/13 03:51:55;;;;;;;4.58;2.65;;;;;;;13.71;85.08;100766.73;1747062;79;21318;-62
2021/05/13 03:54:28;;;;;;;6.25;2.47;;;;;;;13.77;84.84;100765.34;1742088;82;21325;-62
2021/05/13 03:57:01;;;;;;;6.37;2.90;;;;;;;13.81;84.66;100765.38;1735525;82;21305;-62
2021/05/13 03:59:40;;;;;;;4.17;2.98;;;;;;;13.85;84.39;100766.77;1747180;81;21192;-62
2021/05/13 04:04:45;;;;;;;5.37;2.33;;;;;;;13.93;84.17;100772.13;1737728;82;21268;-62
2021/05/13 04:07:18;;;;;;;5.00;2.60;;;;;;;13.94;83.83;100783.84;1729041;82;21187;-62
2021/05/13 04:09:52;;;;;;;5.45;2.60;;;;;;;13.92;83.59;100779.19;1734277;82;21290;-62
2021/05/13 04:12:25;;;;;;;8.47;2.57;;;;;;;13.94;83.43;100780.38;1727196;82;21163;-62
2021/05/13 04:14:59;;;;;;;7.62;2.98;;;;;;;13.96;83.32;100782.37;1744070;81;21555;-63
2021/05/13 04:17:32;;;;;;;4.78;2.42;;;;;;;14.00;83.38;100791.62;1733784;82;21251;-62
2021/05/13 04:20:06;;;;;;;5.20;2.90;;;;;;;14.05;83.30;100791.55;1727609;82;21301;-61
2021/05/13 04:22:39;;;;;;;8.98;3.50;;;;;;;14.11;83.14;100784.37;1723285;82;21853;-61
2021/05/13 04:25:13;;;;;;;9.03;3.47;;;;;;;14.20;83.09;100781.36;1709426;82;21275;-61
2021/05/13 04:27:48;;;;;;;5.60;3.02;;;;;;;14.31;83.03;100784.30;1742680;82;21239;-62
2021/05/13 04:30:22;;;;;;;9.60;4.95;;;;;;;14.40;82.70;100782.94;1735382;82;21315;-61
2021/05/13 04:32:54;;;;;;;;;;;;;;;14.53;82.42;100786.53;1725073;82;21330;-61
2021/05/13 04:35:27;;;;;;;8.08;3.95;;;;;;;14.67;82.09;100785.54;1721591;82;20272;-61
2021/05/13 04:38:00;;;;;;;10.23;4.27;;;;;;;14.81;81.62;100786.82;1725709;82;21300;-61
2021/05/13 04:40:32;;;;;;;5.63;3.13;;;;;;;14.96;80.95;100787.13;1736090;82;21216;-62
2021/05/13 04:43:06;;;;;;;8.28;3.37;;;;;;;15.06;80.09;100791.36;1744936;82;21188;-61
2021/05/13 04:45:39;;;;;;;6.15;2.75;;;;;;;15.15;79.72;100793.07;1722628;82;21857;-61
2021/05/13 04:48:16;;;;;;;7.30;3.25;;;;;;;15.24;79.20;100788.20;1732483;82;21872;-61
2021/05/13 04:50:46;;;;;;;7.47;2.72;;;;;;;15.29;78.79;100783.30;1724441;82;21185;-61
2021/05/13 04:53:20;;;;;;;4.28;3.00;;;;;;;15.31;78.49;100779.17;1733944;82;21306;-61
2021/05/13 04:55:54;;;;;;;6.42;3.22;;;;;;;15.38;78.34;100777.09;1720305;81;21771;-62
2021/05/13 04:58:27;;;;;;;7.90;3.15;;;;;;;15.49;78.06;100782.16;1729317;80;21321;-58
2021/05/13 05:01:00;;;;;;;7.17;3.42;;;;;;;15.64;77.85;100790.34;1736130;81;22476;-58
2021/05/13 05:03:33;;;;;;;6.20;3.12;;;;;;;15.80;77.78;100779.87;1717116;81;21310;-59
2021/05/13 05:06:06;;;;;;;3.08;2.20;;;;;;;15.99;77.39;100782.77;1724369;81;21321;-66
2021/05/13 05:08:41;;;;;;;7.50;1.98;;;;;;;16.14;75.65;100781.20;1733546;80;21843;-65
2021/05/13 05:11:16;;;;;;;4.65;1.90;;;;;;;16.29;74.19;100781.42;1723293;81;22068;-62
2021/05/13 05:13:48;;;;;;;4.35;2.33;;;;;;;16.48;73.00;100786.44;1742468;81;21397;-64
2021/05/13 05:16:21;;;;;;;6.12;2.27;;;;;;;16.69;71.25;100782.87;1719667;81;21320;-61
2021/05/13 05:18:55;;;;;;;3.00;2.07;;;;;;;16.97;69.65;100784.72;1731288;80;21178;-65
2021/05/13 05:21:27;;;;;;;2.65;1.80;;;;;;;17.25;68.64;100781.59;1735970;81;21892;-62
2021/05/13 05:24:00;;;;;;;3.60;2.10;;;;;;;17.53;67.65;100782.07;1728205;81;21315;-63
2021/05/13 05:26:33;;;;;;;2.23;1.37;;;;;;;17.88;66.77;100783.50;1719349;81;21458;-64
2021/05/13 05:29:06;;;;;;;2.72;1.70;;;;;;;18.24;65.13;100785.19;1724462;81;21723;-63
2021/05/13 05:31:39;;;;;;;4.23;1.67;;;;;;;18.52;64.29;100791.70;1725521;81;21318;-62
2021/05/13 05:34:12;;;;;;;3.33;1.32;;;;;;;18.63;62.87;100789.47;1721519;81;22459;-62
2021/05/13 05:36:45;;;;;;;2.33;1.37;;;;;;;18.57;61.99;100780.91;1736660;81;21350;-61
2021/05/13 05:39:18;;;;;;;4.10;2.10;;;;;;;18.47;61.70;100778.14;1675926;84;21374;-61
2021/05/13 05:41:53;;;;;;;4.47;1.65;;;;;;;18.40;61.42;100790.41;1688095;83;21309;-63
2021/05/13 05:44:26;;;;;;;2.95;1.45;;;;;;;18.37;60.83;100784.11;1687758;83;21320;-65
2021/05/13 05:46:59;;;;;;;5.70;1.50;;;;;;;18.34;60.28;100787.94;1684524;83;21345;-64
2021/05/13 05:49:33;;;;;;;4.22;1.07;;;;;;;18.34;60.28;100787.94;1679134;83;21312;-63
2021/05/13 05:52:07;;;;;;;2.20;1.17;;;;;;;18.60;60.20;100792.50;1683204;83;21320;-64
2021/05/13 05:54:40;;;;;;;1.62;1.02;;;;;;;18.84;58.83;100798.15;1672123;84;21342;-64
2021/05/13 05:57:13;;;;;;;1.40;1.30;;;;;;;18.90;57.61;100796.09;1688830;83;21621;-64
2021/05/13 05:59:47;;;;;;;3.87;1.15;;;;;;;18.93;56.80;100786.47;1686917;83;21348;-60
2021/05/13 06:02:20;;;;;;;2.95;1.00;;;;;;;18.88;56.00;100790.64;1684813;83;21202;-72
2021/05/13 06:04:53;;;;;;;3.62;1.32;;;;;;;18.86;55.75;100788.18;1692188;83;21212;-62
2021/05/13 06:07:27;;;;;;;2.47;1.27;;;;;;;18.82;55.33;100790.84;1674556;83;21338;-71
2021/05/13 06:10:02;;;;;;;6.65;1.55;;;;;;;18.71;56.24;100784.62;1693170;82;21303;-71
2021/05/13 06:12:38;;;;;;;4.28;1.20;;;;;;;18.63;56.38;100788.64;1686750;82;21358;-69
2021/05/13 06:15:14;;;;;;;2.22;1.25;;;;;;;18.57;56.22;100791.52;1675206;83;21357;-68
2021/05/13 06:17:48;;;;;;;1.87;1.10;;;;;;;18.49;56.54;100790.22;1672979;84;21220;-73
2021/05/13 06:20:31;;;;;;;14.70;7.87;;;;;;;18.47;56.61;100796.69;1665750;84;21264;-65
2021/05/13 06:23:05;;;;;;;4.65;3.25;;;;;;;18.40;56.76;100796.54;1674687;83;21320;-68
2021/05/13 06:25:38;;;;;;;7.05;3.17;;;;;;;18.33;56.14;100789.44;1669775;84;21352;-66
2021/05/13 06:28:13;;;;;;;3.65;1.50;;;;;;;18.24;55.93;100791.31;1659973;84;21196;-65
2021/05/13 06:30:46;;;;;;;5.65;1.50;;;;;;;18.15;55.72;100791.83;1666192;84;21345;-64
2021/05/13 06:33:19;;;;;;;4.50;1.30;;;;;;;18.07;55.63;100792.38;1667793;84;21253;-62
2021/05/13 06:35:53;;;;;;;2.02;1.30;;;;;;;17.98;55.58;100802.16;1664901;84;21864;-62
2021/05/13 06:38:28;;;;;;;2.20;1.40;;;;;;;17.92;55.22;100793.58;1719745;81;21321;-66
2021/05/13 06:41:02;;;;;;;5.80;2.17;;;;;;;17.93;55.98;100798.39;1737576;81;21362;-63
2021/05/13 06:43:36;;;;;;;5.87;1.40;;;;;;;17.99;56.46;100802.98;1731209;81;21206;-68
2021/05/13 06:46:09;;;;;;;4.53;1.55;;;;;;;18.03;56.03;100802.47;1729188;81;21346;-66
2021/05/13 06:48:44;;;;;;;1.75;1.20;;;;;;;17.96;55.57;100804.16;1741201;81;21256;-67
2021/05/13 06:51:18;;;;;;;1.20;1.02;;;;;;;17.83;55.42;100806.52;1733409;81;21334;-63
2021/05/13 06:53:51;;;;;;;1.77;0.93;;;;;;;17.73;56.10;100808.53;1713964;81;21873;-62
2021/05/13 06:56:25;;;;;;;3.55;1.15;;;;;;;17.68;55.75;100808.20;1724249;81;21541;-67
2021/05/13 06:58:58;;;;;;;2.08;1.20;;;;;;;17.66;55.80;100809.36;1730663;81;21346;-65
2021/05/13 07:01:31;;;;;;;7.08;1.40;;;;;;;17.64;55.77;100793.66;1727614;80;21343;-66
2021/05/13 07:04:05;;;;;;;2.37;1.42;;;;;;;17.70;56.37;100790.81;1730058;81;21297;-67
2021/05/13 07:06:39;;;;;;;1.50;1.00;;;;;;;17.82;56.45;100791.62;1742898;81;21344;-65
2021/05/13 07:09:12;;;;;;;4.03;1.00;;;;;;;17.99;56.49;100785.77;1742316;81;22537;-69
2021/05/13 07:11:45;;;;;;;2.02;1.22;;;;;;;18.13;56.32;100786.37;1720884;81;22581;-68
2021/05/13 07:14:21;;;;;;;1.67;1.07;;;;;;;18.27;56.02;100778.22;1728697;81;21281;-68
2021/05/13 07:16:55;;;;;;;2.02;1.25;;;;;;;18.36;55.23;100773.20;1725498;81;21207;-66
2021/05/13 07:19:30;;;;;;;6.20;1.15;;;;;;;18.38;54.73;100772.52;1735492;81;21285;-63
2021/05/13 07:22:05;;;;;;;1.95;1.17;;;;;;;18.44;55.35;100774.47;1739941;81;21231;-68
2021/05/13 07:24:40;;;;;;;2.67;1.22;;;;;;;18.57;55.16;100770.30;1720543;80;21344;-63
2021/05/13 07:27:14;;;;;;;2.02;1.10;;;;;;;18.88;55.15;100765.44;1701264;81;21313;-65
2021/05/13 07:29:47;;;;;;;1.12;0.88;;;;;;;19.32;54.65;100759.25;1724780;81;21162;-68
2021/05/13 07:32:21;;;;;;;2.72;1.27;;;;;;;20.01;52.79;100758.03;1726027;81;21275;-66
2021/05/13 07:34:55;;;;;;;1.25;1.07;;;;;;;20.89;50.93;100755.19;1719709;80;21341;-66
2021/05/13 07:37:29;;;;;;;2.35;1.10;;;;;;;22.07;48.25;100758.72;1737176;80;21243;-64
2021/05/13 07:40:03;;;;;;;;;;;;;;;23.07;45.07;100754.28;1730428;81;21415;-66
2021/05/13 07:42:35;;;;;;;4.08;1.10;;;;;;;24.07;43.32;100752.66;1733775;80;20283;-62
2021/05/13 07:45:09;;;;;;;3.35;1.12;;;;;;;24.56;41.26;100743.45;1727371;80;21341;-63
2021/05/13 07:47:42;;;;;;;1.67;1.05;;;;;;;24.76;40.83;100750.02;1732278;81;21290;-67
2021/05/13 07:50:17;;;;;;;;;;;;;;;25.28;41.06;100737.58;1734154;81;21211;-64
2021/05/13 07:52:51;;;;;;;2.60;1.20;;;;;;;25.84;39.52;100740.66;1717938;81;20472;-66
2021/05/13 07:55:25;;;;;;;1.27;1.02;;;;;;;26.34;38.64;100743.47;1734551;80;21608;-67
2021/05/13 07:57:58;;;;;;;2.17;1.00;;;;;;;26.76;38.23;100755.59;1720990;80;21341;-64
2021/05/13 08:00:31;;;;;;;;;;;;;;;27.02;36.44;100749.81;1727257;80;21356;-60
2021/05/13 08:03:04;;;;;;;1.22;0.70;;;;;;;26.71;36.83;100751.70;1691822;83;20311;-66
2021/05/13 08:05:38;;;;;;;2.92;1.20;;;;;;;26.24;36.96;100756.61;1667126;84;21330;-64
2021/05/13 08:08:11;;;;;;;2.67;1.20;;;;;;;25.68;37.72;100757.31;1664914;83;21350;-66
2021/05/13 08:10:44;;;;;;;4.40;1.40;;;;;;;25.11;38.51;100745.87;1663605;84;21363;-63
2021/05/13 08:13:18;;;;;;;6.83;1.22;;;;;;;24.75;39.57;100743.02;1670775;83;21328;-63
2021/05/13 08:15:52;;;;;;;1.75;1.20;;;;;;;24.43;39.89;100752.88;1664126;84;21297;-65
2021/05/13 08:18:25;;;;;;;2.10;0.93;;;;;;;24.43;39.89;100752.88;1664369;84;21231;-66
2021/05/13 08:20:59;;;;;;;6.22;1.12;;;;;;;23.96;41.66;100759.44;1670489;83;21202;-60
2021/05/13 08:23:32;;;;;;;4.35;1.30;;;;;;;23.56;42.47;100757.06;1732971;80;21275;-61
2021/05/13 08:26:05;;;;;;;3.87;1.32;;;;;;;23.31;43.28;100756.84;1731098;81;21292;-65
2021/05/13 08:28:39;;;;;;;2.45;1.10;;;;;;;23.25;43.79;100755.02;1723537;81;21340;-65
2021/05/13 08:31:12;;;;;;;;;;;;;;;23.16;44.23;100754.41;1733064;81;21318;-64
2021/05/13 08:33:45;;;;;;;10.85;1.25;;;;;;;23.12;44.70;100750.48;1672304;83;20244;-64
2021/05/13 08:36:18;;;;;;;2.55;1.07;;;;;;;23.02;44.22;100746.09;1682492;83;21835;-65
2021/05/13 08:38:51;;;;;;;1.60;1.00;;;;;;;22.97;44.01;100745.87;1684524;83;21307;-64
2021/05/13 08:41:24;;;;;;;2.47;1.12;;;;;;;22.91;44.51;100744.01;1678043;84;22505;-60
2021/05/13 08:43:57;;;;;;;4.12;1.30;;;;;;;22.91;43.89;100749.86;1672847;84;21856;-61
2021/05/13 08:46:31;;;;;;;2.35;1.02;;;;;;;23.01;44.11;100742.27;1686182;83;21312;-61
2021/05/13 08:49:05;;;;;;;;;;;;;;;23.41;43.58;100752.77;1692844;83;21287;-61
2021/05/13 08:51:40;;;;;;;3.47;1.22;;;;;;;23.88;43.23;100744.95;1691172;83;20265;-62
2021/05/13 08:54:14;;;;;;;2.83;1.17;;;;;;;24.55;42.33;100723.05;1684565;83;21331;-59
2021/05/13 08:56:48;;;;;;;1.67;0.93;;;;;;;25.49;41.15;100732.35;1693080;83;21268;-62
2021/05/13 08:59:22;;;;;;;3.33;1.20;;;;;;;26.24;39.85;100721.72;1684284;83;21536;-61
2021/05/13 09:02:00;;;;;;;3.52;1.40;;;;;;;26.58;39.43;100732.30;1691112;82;21294;-59
2021/05/13 09:04:47;;;;;;;3.98;0.85;;;;;;;26.07;38.26;100734.08;1699064;83;21220;-61
2021/05/13 09:07:27;;;;;;;4.30;1.12;;;;;;;26.07;38.26;100734.08;1677975;83;21312;-59
2021/05/13 09:10:08;;;;;;;2.62;1.15;;;;;;;25.31;39.87;100733.13;1677409;83;21224;-61
2021/05/13 09:12:44;;;;;;;13.43;1.30;;;;;;;24.74;40.37;100722.65;1686818;83;21315;-59
2021/05/13 09:15:20;;;;;;;3.65;1.20;;;;;;;24.29;41.89;100733.91;1684269;82;21326;-59
2021/05/13 09:18:02;;;;;;;2.02;0.80;;;;;;;24.08;42.35;100723.52;1663804;84;21288;-59
2021/05/13 09:20:38;;;;;;;3.17;1.05;;;;;;;23.96;43.09;100724.67;1654729;84;21406;-60
2021/05/13 09:23:28;;;;;;;1.22;0.85;;;;;;;23.89;43.21;100718.52;1674471;84;21236;-57
2021/05/13 09:26:12;;;;;;;1.40;1.00;;;;;;;23.88;43.10;100725.44;1667755;83;21251;-58
2021/05/13 09:28:50;;;;;;;8.48;1.77;;;;;;;23.82;43.21;100719.06;1661893;83;21798;-59
2021/05/13 09:31:39;;;;;;;2.10;1.15;;;;;;;23.91;43.33;100712.95;1668595;84;22047;-59
2021/05/13 09:34:12;;;;;;;1.25;1.07;;;;;;;24.23;43.49;100705.34;1676254;84;21360;-60
2021/05/13 09:36:46;;;;;;;5.00;1.45;;;;;;;24.66;42.66;100704.98;1673911;84;21398;-62
2021/05/13 09:39:24;;;;;;;2.02;0.85;;;;;;;25.03;41.67;100713.19;1683212;83;21362;-58
2021/05/13 09:42:03;;;;;;;3.30;1.00;;;;;;;25.08;41.57;100710.64;1675802;83;21826;-57
2021/05/13 09:44:37;;;;;;;4.58;1.60;;;;;;;25.00;40.76;100702.39;1669854;83;21417;-59
2021/05/13 09:47:22;;;;;;;23.73;1.95;;;;;;;24.84;41.61;100705.58;1659474;84;21376;-59
2021/05/13 09:50:05;;;;;;;3.35;1.00;;;;;;;24.77;40.72;100714.19;1694983;83;21251;-59
2021/05/13 09:52:57;;;;;;;3.67;1.10;;;;;;;24.73;41.17;100707.60;1676939;83;21377;-57
2021/05/13 09:55:33;;;;;;;2.05;1.00;;;;;;;24.84;41.28;100706.92;1678144;83;22077;-62
2021/05/13 09:58:12;;;;;;;2.83;0.85;;;;;;;24.85;40.39;100711.77;1672913;83;21371;-65
2021/05/13 10:00:49;;;;;;;5.15;1.07;;;;;;;24.73;40.35;100710.28;1666130;84;21337;-62
2021/05/13 10:03:24;;;;;;;7.12;1.40;;;;;;;24.52;41.32;100715.48;1675115;83;21246;-66
2021/05/13 10:05:57;;;;;;;5.92;2.45;;;;;;;24.38;41.27;100705.89;1670939;83;21337;-58
2021/05/13 10:08:30;;;;;;;4.85;1.40;;;;;;;24.41;41.78;100709.45;1682102;83;21375;-59
2021/05/13 10:11:03;;;;;;;6.10;1.20;;;;;;;24.44;41.29;100707.69;1668610;84;21192;-58
2021/05/13 10:13:37;;;;;;;3.75;1.20;;;;;;;24.50;41.05;100710.04;1668508;84;21343;-60
2021/05/13 10:16:10;;;;;;;8.58;1.80;;;;;;;24.55;41.13;100705.66;1670102;84;21315;-60
2021/05/13 10:18:46;;;;;;;4.15;1.40;;;;;;;24.52;41.52;100707.45;1674151;83;21313;-60
2021/05/13 10:21:25;;;;;;;6.20;1.30;;;;;;;24.47;41.32;100720.66;1670382;84;21351;-60
2021/05/13 10:23:58;;;;;;;6.22;1.25;;;;;;;24.39;40.61;100710.19;1683158;83;21342;-61
2021/05/13 10:26:37;;;;;;;8.25;1.80;;;;;;;24.24;41.21;100714.20;1659022;84;21818;-64
2021/05/13 10:29:27;;;;;;;5.47;1.57;;;;;;;24.07;41.33;100713.88;1668090;83;21350;-62
2021/05/13 10:32:18;;;;;;;4.50;1.40;;;;;;;23.95;41.73;100716.88;1666554;83;21191;-61
2021/05/13 10:34:57;;;;;;;6.90;1.62;;;;;;;23.81;42.23;100707.26;1669645;83;21867;-61
2021/05/13 10:37:43;;;;;;;3.35;1.20;;;;;;;23.81;42.85;100710.73;1691028;82;21857;-61
2021/05/13 10:40:23;;;;;;;4.75;1.30;;;;;;;23.89;42.36;100714.52;1673002;83;21383;-64
2021/05/13 10:43:06;;;;;;;2.10;0.95;;;;;;;23.90;41.77;100713.50;1663323;84;21230;-58
2021/05/13 10:45:41;;;;;;;4.70;1.42;;;;;;;23.87;41.22;100708.56;1669004;84;21254;-61
2021/05/13 10:48:40;;;;;;;6.70;0.90;;;;;;;23.83;41.61;100705.19;1672273;83;21346;-60
2021/05/13 10:51:15;;;;;;;5.58;1.20;;;;;;;23.73;40.94;100704.30;1654515;83;21185;-64
2021/05/13 10:53:49;;;;;;;3.72;1.12;;;;;;;23.61;42.66;100699.80;1673577;83;21379;-65
2021/05/13 10:56:35;;;;;;;1.80;0.95;;;;;;;23.51;42.43;100706.09;1683426;83;21353;-60
2021/05/13 10:59:15;;;;;;;1.65;0.93;;;;;;;23.47;42.85;100699.02;1672298;83;21837;-65
2021/05/13 11:01:55;;;;;;;4.80;2.20;;;;;;;23.49;43.19;100694.28;1665207;83;21360;-60
2021/05/13 11:04:34;;;;;;;2.98;1.32;;;;;;;23.55;43.27;100689.96;1662497;84;21253;-62
2021/05/13 11:07:17;;;;;;;2.83;1.20;;;;;;;23.66;43.22;100695.98;1669988;84;21256;-64
2021/05/13 11:09:58;;;;;;;4.90;1.20;;;;;;;23.70;42.10;100695.35;1661974;84;21256;-60
2021/05/13 11:12:39;;;;;;;5.62;1.02;;;;;;;23.70;41.86;100695.35;1711791;80;21558;-59
2021/05/13 11:15:21;;;;;;;7.62;1.00;;;;;;;23.74;42.77;100683.20;1730121;81;21345;-62
2021/05/13 11:17:59;;;;;;;2.15;1.15;;;;;;;23.83;41.97;100687.81;1729108;80;22216;-64
2021/05/13 11:20:47;;;;;;;12.43;2.58;;;;;;;23.90;41.91;100678.73;1735572;81;21222;-62
2021/05/13 11:23:24;;;;;;;3.50;1.00;;;;;;;24.04;42.05;100676.30;1726694;81;21745;-65
2021/05/13 11:26:07;;;;;;;4.58;1.10;;;;;;;24.19;41.74;100681.41;1734146;81;21267;-67
2021/05/13 11:28:46;;;;;;;8.35;1.65;;;;;;;24.34;40.66;100675.22;1728334;81;21302;-63
2021/05/13 11:31:20;;;;;;;3.10;1.17;;;;;;;24.44;40.59;100675.58;1745602;81;21271;-66
2021/05/13 11:33:58;;;;;;;3.05;1.15;;;;;;;24.53;41.02;100670.77;1745405;80;21902;-62
2021/05/13 11:36:39;;;;;;;6.55;1.50;;;;;;;24.43;41.08;100672.59;1744932;81;21932;-63
2021/05/13 11:39:15;;;;;;;3.72;1.40;;;;;;;24.29;41.20;100675.05;1706164;80;21338;-63
2021/05/13 11:41:51;;;;;;;8.18;1.77;;;;;;;24.15;41.39;100674.82;1724648;80;21729;-60
2021/05/13 11:44:25;;;;;;;5.83;1.10;;;;;;;24.01;42.01;100678.05;1697631;82;21364;-61
2021/05/13 11:46:58;;;;;;;2.17;1.20;;;;;;;23.89;42.68;100674.41;1731790;81;21339;-61
2021/05/13 11:49:37;;;;;;;;;;;;;;;23.80;43.06;100683.70;1733770;81;21389;-64
2021/05/13 11:52:11;;;;;;;1.12;1.02;;;;;;;23.73;42.66;100679.41;1728813;81;21456;-61
2021/05/13 11:54:46;;;;;;;3.35;0.98;;;;;;;23.73;42.27;100672.72;1735645;80;21287;-59
2021/05/13 11:57:18;;;;;;;3.25;0.98;;;;;;;23.81;42.13;100676.51;1734973;81;21313;-59
2021/05/13 11:59:52;;;;;;;1.67;1.17;;;;;;;23.87;42.69;100677.81;1717144;81;21216;-60
2021/05/13 12:02:25;;;;;;;3.90;1.10;;;;;;;23.97;42.27;100666.66;1728091;81;21290;-60
2021/05/13 12:05:07;;;;;;;5.15;1.37;;;;;;;23.99;41.58;100665.42;1730804;81;21269;-58